sensor_id;sensor_type;location;lat;lon;timestamp;P1;durP1;ratioP1;P2;durP2;ratioP2
33162;SDS011;29282;45.656;11.302;2023-11-18T00:01:31;5.43;;;2.67;;
33162;SDS011;29282;45.656;11.302;2023-11-18T00:03:58;6.55;;;2.83;;
33162;SDS011;29282;45.656;11.302;2023-11-18T00:06:23;5.43;;;2.95;;
33162;SDS011;29282;45.656;11.302;2023-11-18T00:08:49;6.65;;;3.00;;
33162;SDS011;29282;45.656;11.302;2023-11-18T00:11:14;8.57;;;2.92;;
33162;SDS011;29282;45.656;11.302;2023-11-18T00:13:43;4.38;;;2.38;;
33162;SDS011;29282;45.656;11.302;2023-11-18T00:16:09;5.10;;;2.60;;
33162;SDS011;29282;45.656;11.302;2023-11-18T00:18:41;6.05;;;2.53;;
33162;SDS011;29282;45.656;11.302;2023-11-18T00:21:07;4.20;;;2.75;;
33162;SDS011;29282;45.656;11.302;2023-11-18T00:23:36;6.28;;;2.67;;
33162;SDS011;29282;45.656;11.302;2023-11-18T00:26:02;8.70;;;2.70;;
33162;SDS011;29282;45.656;11.302;2023-11-18T00:28:28;5.00;;;2.22;;
33162;SDS011;29282;45.656;11.302;2023-11-18T00:30:53;5.63;;;2.50;;
33162;SDS011;29282;45.656;11.302;2023-11-18T00:33:19;8.43;;;2.78;;
33162;SDS011;29282;45.656;11.302;2023-11-18T00:35:44;3.90;;;2.60;;
33162;SDS011;29282;45.656;11.302;2023-11-18T00:38:10;6.43;;;2.50;;
33162;SDS011;29282;45.656;11.302;2023-11-18T00:40:39;8.23;;;2.33;;
33162;SDS011;29282;45.656;11.302;2023-11-18T00:43:04;4.35;;;2.85;;
33162;SDS011;29282;45.656;11.302;2023-11-18T00:45:30;5.30;;;2.83;;
33162;SDS011;29282;45.656;11.302;2023-11-18T00:47:58;4.32;;;2.63;;
33162;SDS011;29282;45.656;11.302;2023-11-18T00:50:24;5.63;;;2.42;;
33162;SDS011;29282;45.656;11.302;2023-11-18T00:52:49;5.15;;;2.60;;
33162;SDS011;29282;45.656;11.302;2023-11-18T00:55:15;6.07;;;2.28;;
33162;SDS011;29282;45.656;11.302;2023-11-18T00:57:43;4.93;;;2.50;;
33162;SDS011;29282;45.656;11.302;2023-11-18T01:00:11;8.98;;;2.75;;
33162;SDS011;29282;45.656;11.302;2023-11-18T01:02:40;4.07;;;2.22;;
33162;SDS011;29282;45.656;11.302;2023-11-18T01:05:08;2.95;;;2.30;;
33162;SDS011;29282;45.656;11.302;2023-11-18T01:07:35;4.13;;;2.17;;
33162;SDS011;29282;45.656;11.302;2023-11-18T01:10:01;3.15;;;2.40;;
33162;SDS011;29282;45.656;11.302;2023-11-18T01:12:28;4.63;;;2.30;;
33162;SDS011;29282;45.656;11.302;2023-11-18T01:14:54;3.15;;;2.58;;
33162;SDS011;29282;45.656;11.302;2023-11-18T01:17:19;5.60;;;2.35;;
33162;SDS011;29282;45.656;11.302;2023-11-18T01:19:47;3.70;;;2.45;;
33162;SDS011;29282;45.656;11.302;2023-11-18T01:22:13;3.63;;;2.33;;
33162;SDS011;29282;45.656;11.302;2023-11-18T01:24:38;5.20;;;2.22;;
33162;SDS011;29282;45.656;11.302;2023-11-18T01:27:04;5.00;;;2.45;;
33162;SDS011;29282;45.656;11.302;2023-11-18T01:29:30;3.97;;;2.30;;
33162;SDS011;29282;45.656;11.302;2023-11-18T01:31:56;3.72;;;2.38;;
33162;SDS011;29282;45.656;11.302;2023-11-18T01:34:22;5.60;;;2.30;;
33162;SDS011;29282;45.656;11.302;2023-11-18T01:36:48;3.50;;;2.40;;
33162;SDS011;29282;45.656;11.302;2023-11-18T01:39:17;3.13;;;2.13;;
33162;SDS011;29282;45.656;11.302;2023-11-18T01:41:43;3.42;;;2.33;;
33162;SDS011;29282;45.656;11.302;2023-11-18T01:44:09;9.07;;;2.75;;
33162;SDS011;29282;45.656;11.302;2023-11-18T01:46:35;5.30;;;2.50;;
33162;SDS011;29282;45.656;11.302;2023-11-18T01:49:02;6.07;;;2.45;;
33162;SDS011;29282;45.656;11.302;2023-11-18T01:51:29;7.25;;;2.65;;
33162;SDS011;29282;45.656;11.302;2023-11-18T01:53:55;4.35;;;1.92;;
33162;SDS011;29282;45.656;11.302;2023-11-18T01:56:25;2.47;;;2.08;;
33162;SDS011;29282;45.656;11.302;2023-11-18T01:58:52;3.88;;;2.05;;
33162;SDS011;29282;45.656;11.302;2023-11-18T02:01:18;2.22;;;1.90;;
33162;SDS011;29282;45.656;11.302;2023-11-18T02:03:44;3.03;;;2.10;;
33162;SDS011;29282;45.656;11.302;2023-11-18T02:06:10;4.35;;;1.92;;
33162;SDS011;29282;45.656;11.302;2023-11-18T02:08:35;3.38;;;2.17;;
33162;SDS011;29282;45.656;11.302;2023-11-18T02:11:08;2.70;;;2.08;;
33162;SDS011;29282;45.656;11.302;2023-11-18T02:13:42;4.18;;;2.13;;
33162;SDS011;29282;45.656;11.302;2023-11-18T02:16:12;5.13;;;2.28;;
33162;SDS011;29282;45.656;11.302;2023-11-18T02:18:39;6.55;;;2.05;;
33162;SDS011;29282;45.656;11.302;2023-11-18T02:21:08;5.35;;;2.38;;
33162;SDS011;29282;45.656;11.302;2023-11-18T02:23:37;3.63;;;2.10;;
33162;SDS011;29282;45.656;11.302;2023-11-18T02:26:03;3.80;;;2.03;;
33162;SDS011;29282;45.656;11.302;2023-11-18T02:28:29;3.13;;;2.00;;
33162;SDS011;29282;45.656;11.302;2023-11-18T02:31:30;5.82;;;2.28;;
33162;SDS011;29282;45.656;11.302;2023-11-18T02:33:53;2.88;;;2.00;;
33162;SDS011;29282;45.656;11.302;2023-11-18T02:36:24;5.70;;;2.30;;
33162;SDS011;29282;45.656;11.302;2023-11-18T02:39:04;3.08;;;2.13;;
33162;SDS011;29282;45.656;11.302;2023-11-18T02:41:35;3.03;;;2.00;;
33162;SDS011;29282;45.656;11.302;2023-11-18T02:44:04;3.38;;;2.08;;
33162;SDS011;29282;45.656;11.302;2023-11-18T02:46:36;3.55;;;1.90;;
33162;SDS011;29282;45.656;11.302;2023-11-18T02:49:01;3.55;;;2.17;;
33162;SDS011;29282;45.656;11.302;2023-11-18T02:51:28;2.80;;;2.10;;
33162;SDS011;29282;45.656;11.302;2023-11-18T02:53:56;2.65;;;1.95;;
33162;SDS011;29282;45.656;11.302;2023-11-18T02:56:22;4.03;;;2.22;;
33162;SDS011;29282;45.656;11.302;2023-11-18T02:58:51;4.20;;;2.13;;
33162;SDS011;29282;45.656;11.302;2023-11-18T03:01:16;3.58;;;2.03;;
33162;SDS011;29282;45.656;11.302;2023-11-18T03:03:44;3.00;;;2.03;;
33162;SDS011;29282;45.656;11.302;2023-11-18T03:06:09;3.53;;;1.95;;
33162;SDS011;29282;45.656;11.302;2023-11-18T03:08:36;2.58;;;1.80;;
33162;SDS011;29282;45.656;11.302;2023-11-18T03:11:02;2.63;;;1.80;;
33162;SDS011;29282;45.656;11.302;2023-11-18T03:13:29;3.10;;;1.67;;
33162;SDS011;29282;45.656;11.302;2023-11-18T03:15:55;3.42;;;2.10;;
33162;SDS011;29282;45.656;11.302;2023-11-18T03:18:20;2.42;;;1.90;;
33162;SDS011;29282;45.656;11.302;2023-11-18T03:20:46;3.50;;;1.92;;
33162;SDS011;29282;45.656;11.302;2023-11-18T03:23:11;2.85;;;1.85;;
33162;SDS011;29282;45.656;11.302;2023-11-18T03:25:37;1.80;;;1.60;;
33162;SDS011;29282;45.656;11.302;2023-11-18T03:28:03;3.72;;;2.00;;
33162;SDS011;29282;45.656;11.302;2023-11-18T03:30:31;2.28;;;1.55;;
33162;SDS011;29282;45.656;11.302;2023-11-18T03:32:56;3.13;;;2.08;;
33162;SDS011;29282;45.656;11.302;2023-11-18T03:35:22;2.88;;;2.13;;
33162;SDS011;29282;45.656;11.302;2023-11-18T03:37:49;2.75;;;2.03;;
33162;SDS011;29282;45.656;11.302;2023-11-18T03:40:17;3.78;;;1.95;;
33162;SDS011;29282;45.656;11.302;2023-11-18T03:42:42;2.72;;;1.95;;
33162;SDS011;29282;45.656;11.302;2023-11-18T03:45:08;2.67;;;1.92;;
33162;SDS011;29282;45.656;11.302;2023-11-18T03:47:34;2.08;;;1.83;;
33162;SDS011;29282;45.656;11.302;2023-11-18T03:50:00;4.28;;;1.70;;
33162;SDS011;29282;45.656;11.302;2023-11-18T03:52:26;5.03;;;2.20;;
33162;SDS011;29282;45.656;11.302;2023-11-18T03:54:52;2.38;;;1.83;;
33162;SDS011;29282;45.656;11.302;2023-11-18T03:57:20;2.97;;;2.15;;
33162;SDS011;29282;45.656;11.302;2023-11-18T03:59:46;2.33;;;1.83;;
33162;SDS011;29282;45.656;11.302;2023-11-18T04:02:11;4.00;;;2.15;;
33162;SDS011;29282;45.656;11.302;2023-11-18T04:04:37;3.15;;;1.80;;
33162;SDS011;29282;45.656;11.302;2023-11-18T04:07:03;2.70;;;1.80;;
33162;SDS011;29282;45.656;11.302;2023-11-18T04:09:29;2.83;;;2.00;;
33162;SDS011;29282;45.656;11.302;2023-11-18T04:11:55;3.13;;;1.75;;
33162;SDS011;29282;45.656;11.302;2023-11-18T04:14:21;3.17;;;2.08;;
33162;SDS011;29282;45.656;11.302;2023-11-18T04:16:50;2.08;;;1.88;;
33162;SDS011;29282;45.656;11.302;2023-11-18T04:19:16;3.25;;;1.75;;
33162;SDS011;29282;45.656;11.302;2023-11-18T04:21:46;2.88;;;1.67;;
33162;SDS011;29282;45.656;11.302;2023-11-18T04:24:14;2.78;;;1.90;;
33162;SDS011;29282;45.656;11.302;2023-11-18T04:26:40;3.42;;;1.70;;
33162;SDS011;29282;45.656;11.302;2023-11-18T04:29:06;3.60;;;1.80;;
33162;SDS011;29282;45.656;11.302;2023-11-18T04:31:31;2.50;;;1.70;;
33162;SDS011;29282;45.656;11.302;2023-11-18T04:34:00;2.30;;;1.67;;
33162;SDS011;29282;45.656;11.302;2023-11-18T04:36:25;2.45;;;1.80;;
33162;SDS011;29282;45.656;11.302;2023-11-18T04:38:51;2.05;;;1.58;;
33162;SDS011;29282;45.656;11.302;2023-11-18T04:41:17;1.95;;;1.75;;
33162;SDS011;29282;45.656;11.302;2023-11-18T04:43:43;2.28;;;1.98;;
33162;SDS011;29282;45.656;11.302;2023-11-18T04:46:08;3.05;;;1.70;;
33162;SDS011;29282;45.656;11.302;2023-11-18T04:48:37;4.45;;;1.88;;
33162;SDS011;29282;45.656;11.302;2023-11-18T04:51:03;2.10;;;1.77;;
33162;SDS011;29282;45.656;11.302;2023-11-18T04:53:28;2.60;;;1.58;;
33162;SDS011;29282;45.656;11.302;2023-11-18T04:55:54;2.20;;;2.00;;
33162;SDS011;29282;45.656;11.302;2023-11-18T04:58:20;3.30;;;2.20;;
33162;SDS011;29282;45.656;11.302;2023-11-18T05:00:46;3.58;;;1.90;;
33162;SDS011;29282;45.656;11.302;2023-11-18T05:03:13;3.53;;;1.90;;
33162;SDS011;29282;45.656;11.302;2023-11-18T05:05:39;2.15;;;1.73;;
33162;SDS011;29282;45.656;11.302;2023-11-18T05:08:05;4.63;;;2.20;;
33162;SDS011;29282;45.656;11.302;2023-11-18T05:10:32;4.35;;;1.80;;
33162;SDS011;29282;45.656;11.302;2023-11-18T05:12:58;4.30;;;1.92;;
33162;SDS011;29282;45.656;11.302;2023-11-18T05:15:23;5.25;;;1.80;;
33162;SDS011;29282;45.656;11.302;2023-11-18T05:17:50;3.88;;;1.80;;
33162;SDS011;29282;45.656;11.302;2023-11-18T05:20:16;1.90;;;1.70;;
33162;SDS011;29282;45.656;11.302;2023-11-18T05:22:41;2.03;;;1.73;;
33162;SDS011;29282;45.656;11.302;2023-11-18T05:25:07;3.45;;;1.77;;
33162;SDS011;29282;45.656;11.302;2023-11-18T05:27:34;4.60;;;1.95;;
33162;SDS011;29282;45.656;11.302;2023-11-18T05:30:00;2.35;;;1.60;;
33162;SDS011;29282;45.656;11.302;2023-11-18T05:32:28;6.35;;;1.85;;
33162;SDS011;29282;45.656;11.302;2023-11-18T05:34:55;7.68;;;1.83;;
33162;SDS011;29282;45.656;11.302;2023-11-18T05:37:22;3.03;;;1.63;;
33162;SDS011;29282;45.656;11.302;2023-11-18T05:39:48;4.15;;;1.80;;
33162;SDS011;29282;45.656;11.302;2023-11-18T05:42:18;2.67;;;1.48;;
33162;SDS011;29282;45.656;11.302;2023-11-18T05:44:44;4.32;;;1.73;;
33162;SDS011;29282;45.656;11.302;2023-11-18T05:47:10;3.78;;;1.75;;
33162;SDS011;29282;45.656;11.302;2023-11-18T05:49:38;2.70;;;1.60;;
33162;SDS011;29282;45.656;11.302;2023-11-18T05:52:04;2.22;;;1.45;;
33162;SDS011;29282;45.656;11.302;2023-11-18T05:54:30;1.77;;;1.50;;
33162;SDS011;29282;45.656;11.302;2023-11-18T05:56:56;5.43;;;1.60;;
33162;SDS011;29282;45.656;11.302;2023-11-18T05:59:24;2.88;;;1.58;;
33162;SDS011;29282;45.656;11.302;2023-11-18T06:01:50;4.65;;;1.77;;
33162;SDS011;29282;45.656;11.302;2023-11-18T06:04:16;3.60;;;1.83;;
33162;SDS011;29282;45.656;11.302;2023-11-18T06:06:42;2.22;;;1.58;;
33162;SDS011;29282;45.656;11.302;2023-11-18T06:09:07;2.95;;;1.80;;
33162;SDS011;29282;45.656;11.302;2023-11-18T06:11:43;2.20;;;1.45;;
33162;SDS011;29282;45.656;11.302;2023-11-18T06:14:10;1.58;;;1.48;;
33162;SDS011;29282;45.656;11.302;2023-11-18T06:16:37;2.45;;;1.48;;
33162;SDS011;29282;45.656;11.302;2023-11-18T06:19:05;3.58;;;1.50;;
33162;SDS011;29282;45.656;11.302;2023-11-18T06:21:31;3.28;;;1.70;;
33162;SDS011;29282;45.656;11.302;2023-11-18T06:24:00;3.53;;;1.70;;
33162;SDS011;29282;45.656;11.302;2023-11-18T06:26:26;3.20;;;1.40;;
33162;SDS011;29282;45.656;11.302;2023-11-18T06:28:53;2.58;;;1.80;;
33162;SDS011;29282;45.656;11.302;2023-11-18T06:31:19;2.38;;;1.60;;
33162;SDS011;29282;45.656;11.302;2023-11-18T06:33:46;1.65;;;1.50;;
33162;SDS011;29282;45.656;11.302;2023-11-18T06:41:15;2.22;;;1.73;;
33162;SDS011;29282;45.656;11.302;2023-11-18T06:43:42;3.13;;;1.67;;
33162;SDS011;29282;45.656;11.302;2023-11-18T06:46:20;2.95;;;1.60;;
33162;SDS011;29282;45.656;11.302;2023-11-18T06:48:50;5.60;;;1.73;;
33162;SDS011;29282;45.656;11.302;2023-11-18T06:51:22;2.03;;;1.70;;
33162;SDS011;29282;45.656;11.302;2023-11-18T06:53:53;2.60;;;1.60;;
33162;SDS011;29282;45.656;11.302;2023-11-18T06:56:25;3.75;;;1.80;;
33162;SDS011;29282;45.656;11.302;2023-11-18T06:58:52;4.05;;;1.70;;
33162;SDS011;29282;45.656;11.302;2023-11-18T07:01:18;2.80;;;1.67;;
33162;SDS011;29282;45.656;11.302;2023-11-18T07:03:45;2.38;;;1.45;;
33162;SDS011;29282;45.656;11.302;2023-11-18T07:06:19;3.90;;;1.52;;
33162;SDS011;29282;45.656;11.302;2023-11-18T07:08:48;3.88;;;1.58;;
33162;SDS011;29282;45.656;11.302;2023-11-18T07:11:14;1.80;;;1.30;;
33162;SDS011;29282;45.656;11.302;2023-11-18T07:13:40;2.00;;;1.48;;
33162;SDS011;29282;45.656;11.302;2023-11-18T07:16:06;2.00;;;1.50;;
33162;SDS011;29282;45.656;11.302;2023-11-18T07:18:34;3.17;;;1.70;;
33162;SDS011;29282;45.656;11.302;2023-11-18T07:21:00;2.08;;;1.48;;
33162;SDS011;29282;45.656;11.302;2023-11-18T07:23:25;2.25;;;1.70;;
33162;SDS011;29282;45.656;11.302;2023-11-18T07:25:51;4.18;;;1.50;;
33162;SDS011;29282;45.656;11.302;2023-11-18T07:28:18;5.70;;;1.70;;
33162;SDS011;29282;45.656;11.302;2023-11-18T07:30:44;2.30;;;1.40;;
33162;SDS011;29282;45.656;11.302;2023-11-18T07:33:15;2.53;;;1.55;;
33162;SDS011;29282;45.656;11.302;2023-11-18T07:35:42;6.35;;;1.70;;
33162;SDS011;29282;45.656;11.302;2023-11-18T07:38:08;2.92;;;1.20;;
33162;SDS011;29282;45.656;11.302;2023-11-18T07:40:35;2.58;;;1.50;;
33162;SDS011;29282;45.656;11.302;2023-11-18T07:43:02;3.63;;;1.75;;
33162;SDS011;29282;45.656;11.302;2023-11-18T07:45:34;2.80;;;1.35;;
33162;SDS011;29282;45.656;11.302;2023-11-18T07:48:03;4.45;;;1.70;;
33162;SDS011;29282;45.656;11.302;2023-11-18T07:50:32;2.42;;;1.25;;
33162;SDS011;29282;45.656;11.302;2023-11-18T07:53:02;2.67;;;1.30;;
33162;SDS011;29282;45.656;11.302;2023-11-18T07:55:28;5.85;;;1.30;;
33162;SDS011;29282;45.656;11.302;2023-11-18T07:57:59;2.83;;;1.45;;
33162;SDS011;29282;45.656;11.302;2023-11-18T08:00:29;7.15;;;1.45;;
33162;SDS011;29282;45.656;11.302;2023-11-18T08:02:58;1.60;;;1.27;;
33162;SDS011;29282;45.656;11.302;2023-11-18T08:05:25;4.95;;;1.30;;
33162;SDS011;29282;45.656;11.302;2023-11-18T08:07:51;3.60;;;2.58;;
33162;SDS011;29282;45.656;11.302;2023-11-18T08:10:18;3.85;;;1.45;;
33162;SDS011;29282;45.656;11.302;2023-11-18T08:12:44;3.50;;;1.40;;
33162;SDS011;29282;45.656;11.302;2023-11-18T08:15:12;4.45;;;1.65;;
33162;SDS011;29282;45.656;11.302;2023-11-18T08:17:38;4.10;;;1.33;;
33162;SDS011;29282;45.656;11.302;2023-11-18T08:20:04;3.00;;;1.27;;
33162;SDS011;29282;45.656;11.302;2023-11-18T08:25:05;2.70;;;1.30;;
33162;SDS011;29282;45.656;11.302;2023-11-18T08:27:33;5.15;;;1.80;;
33162;SDS011;29282;45.656;11.302;2023-11-18T08:30:00;1.30;;;1.15;;
33162;SDS011;29282;45.656;11.302;2023-11-18T08:32:26;6.95;;;2.00;;
33162;SDS011;29282;45.656;11.302;2023-11-18T08:34:51;3.65;;;1.48;;
33162;SDS011;29282;45.656;11.302;2023-11-18T08:37:17;2.85;;;1.35;;
33162;SDS011;29282;45.656;11.302;2023-11-18T08:39:42;4.18;;;1.58;;
33162;SDS011;29282;45.656;11.302;2023-11-18T08:42:08;2.42;;;1.40;;
33162;SDS011;29282;45.656;11.302;2023-11-18T08:44:33;4.47;;;1.52;;
33162;SDS011;29282;45.656;11.302;2023-11-18T08:46:58;3.75;;;1.40;;
33162;SDS011;29282;45.656;11.302;2023-11-18T08:49:24;5.28;;;1.45;;
33162;SDS011;29282;45.656;11.302;2023-11-18T08:51:50;4.97;;;1.50;;
33162;SDS011;29282;45.656;11.302;2023-11-18T08:54:21;10.50;;;1.70;;
33162;SDS011;29282;45.656;11.302;2023-11-18T08:56:50;2.35;;;1.40;;
33162;SDS011;29282;45.656;11.302;2023-11-18T08:59:20;7.28;;;1.60;;
33162;SDS011;29282;45.656;11.302;2023-11-18T09:01:55;5.95;;;1.52;;
33162;SDS011;29282;45.656;11.302;2023-11-18T09:04:21;4.95;;;1.92;;
33162;SDS011;29282;45.656;11.302;2023-11-18T09:06:48;7.07;;;1.50;;
33162;SDS011;29282;45.656;11.302;2023-11-18T09:09:14;5.82;;;1.60;;
33162;SDS011;29282;45.656;11.302;2023-11-18T09:11:40;7.90;;;1.60;;
33162;SDS011;29282;45.656;11.302;2023-11-18T09:14:07;3.80;;;1.70;;
33162;SDS011;29282;45.656;11.302;2023-11-18T09:16:33;2.58;;;1.40;;
33162;SDS011;29282;45.656;11.302;2023-11-18T09:19:04;8.98;;;1.77;;
33162;SDS011;29282;45.656;11.302;2023-11-18T09:21:31;3.15;;;1.30;;
33162;SDS011;29282;45.656;11.302;2023-11-18T09:24:00;12.15;;;1.73;;
33162;SDS011;29282;45.656;11.302;2023-11-18T09:26:30;4.80;;;1.50;;
33162;SDS011;29282;45.656;11.302;2023-11-18T09:28:56;9.90;;;1.77;;
33162;SDS011;29282;45.656;11.302;2023-11-18T09:31:22;9.55;;;1.45;;
33162;SDS011;29282;45.656;11.302;2023-11-18T09:33:48;14.10;;;2.20;;
33162;SDS011;29282;45.656;11.302;2023-11-18T09:36:22;7.07;;;1.77;;
33162;SDS011;29282;45.656;11.302;2023-11-18T09:38:48;3.33;;;1.30;;
33162;SDS011;29282;45.656;11.302;2023-11-18T09:41:14;7.07;;;1.83;;
33162;SDS011;29282;45.656;11.302;2023-11-18T09:43:44;6.88;;;1.60;;
33162;SDS011;29282;45.656;11.302;2023-11-18T09:46:11;4.95;;;1.60;;
33162;SDS011;29282;45.656;11.302;2023-11-18T09:51:21;13.40;;;3.22;;
33162;SDS011;29282;45.656;11.302;2023-11-18T09:53:52;12.20;;;3.97;;
33162;SDS011;29282;45.656;11.302;2023-11-18T09:59:10;21.98;;;5.47;;
33162;SDS011;29282;45.656;11.302;2023-11-18T10:01:42;19.48;;;5.18;;
33162;SDS011;29282;45.656;11.302;2023-11-18T10:04:09;21.20;;;4.85;;
33162;SDS011;29282;45.656;11.302;2023-11-18T10:06:36;17.70;;;5.07;;
33162;SDS011;29282;45.656;11.302;2023-11-18T10:09:05;18.65;;;4.82;;
33162;SDS011;29282;45.656;11.302;2023-11-18T10:11:41;21.88;;;5.93;;
33162;SDS011;29282;45.656;11.302;2023-11-18T10:14:07;17.60;;;4.50;;
33162;SDS011;29282;45.656;11.302;2023-11-18T10:16:33;23.60;;;5.10;;
33162;SDS011;29282;45.656;11.302;2023-11-18T10:19:03;19.15;;;5.43;;
33162;SDS011;29282;45.656;11.302;2023-11-18T10:21:36;19.80;;;5.30;;
33162;SDS011;29282;45.656;11.302;2023-11-18T10:24:05;20.73;;;5.68;;
33162;SDS011;29282;45.656;11.302;2023-11-18T10:26:39;28.65;;;5.95;;
33162;SDS011;29282;45.656;11.302;2023-11-18T10:29:10;27.80;;;5.60;;
33162;SDS011;29282;45.656;11.302;2023-11-18T10:31:39;21.52;;;6.20;;
33162;SDS011;29282;45.656;11.302;2023-11-18T10:34:11;56.75;;;7.15;;
33162;SDS011;29282;45.656;11.302;2023-11-18T10:36:40;39.03;;;6.60;;
33162;SDS011;29282;45.656;11.302;2023-11-18T10:39:06;26.08;;;6.28;;
33162;SDS011;29282;45.656;11.302;2023-11-18T10:41:39;28.73;;;6.40;;
33162;SDS011;29282;45.656;11.302;2023-11-18T10:44:08;22.92;;;5.57;;
33162;SDS011;29282;45.656;11.302;2023-11-18T10:46:38;25.80;;;6.18;;
33162;SDS011;29282;45.656;11.302;2023-11-18T10:49:05;26.73;;;6.47;;
33162;SDS011;29282;45.656;11.302;2023-11-18T10:51:35;22.85;;;6.22;;
33162;SDS011;29282;45.656;11.302;2023-11-18T10:54:04;18.40;;;5.85;;
33162;SDS011;29282;45.656;11.302;2023-11-18T10:56:30;23.60;;;6.18;;
33162;SDS011;29282;45.656;11.302;2023-11-18T10:59:06;23.08;;;5.80;;
33162;SDS011;29282;45.656;11.302;2023-11-18T11:01:33;32.05;;;6.35;;
33162;SDS011;29282;45.656;11.302;2023-11-18T11:04:04;34.90;;;6.75;;
33162;SDS011;29282;45.656;11.302;2023-11-18T11:06:30;21.02;;;5.43;;
33162;SDS011;29282;45.656;11.302;2023-11-18T11:08:57;22.70;;;5.30;;
33162;SDS011;29282;45.656;11.302;2023-11-18T11:11:37;25.05;;;5.70;;
33162;SDS011;29282;45.656;11.302;2023-11-18T11:14:05;21.25;;;5.63;;
33162;SDS011;29282;45.656;11.302;2023-11-18T11:21:50;20.45;;;5.93;;
33162;SDS011;29282;45.656;11.302;2023-11-18T11:24:25;20.52;;;5.82;;
33162;SDS011;29282;45.656;11.302;2023-11-18T11:27:04;16.73;;;5.47;;
33162;SDS011;29282;45.656;11.302;2023-11-18T11:29:50;21.13;;;5.45;;
33162;SDS011;29282;45.656;11.302;2023-11-18T11:34:56;17.15;;;5.40;;
33162;SDS011;29282;45.656;11.302;2023-11-18T11:37:33;18.60;;;5.47;;
33162;SDS011;29282;45.656;11.302;2023-11-18T11:40:02;18.75;;;5.47;;
33162;SDS011;29282;45.656;11.302;2023-11-18T11:42:35;23.40;;;6.03;;
33162;SDS011;29282;45.656;11.302;2023-11-18T11:45:01;16.63;;;5.25;;
33162;SDS011;29282;45.656;11.302;2023-11-18T11:47:27;15.38;;;4.65;;
33162;SDS011;29282;45.656;11.302;2023-11-18T11:50:06;19.85;;;5.18;;
33162;SDS011;29282;45.656;11.302;2023-11-18T11:52:48;14.68;;;4.63;;
33162;SDS011;29282;45.656;11.302;2023-11-18T11:55:23;14.32;;;4.70;;
33162;SDS011;29282;45.656;11.302;2023-11-18T11:57:59;12.57;;;5.15;;
33162;SDS011;29282;45.656;11.302;2023-11-18T12:00:27;11.98;;;4.57;;
33162;SDS011;29282;45.656;11.302;2023-11-18T12:02:59;14.60;;;4.82;;
33162;SDS011;29282;45.656;11.302;2023-11-18T12:05:29;13.43;;;4.75;;
33162;SDS011;29282;45.656;11.302;2023-11-18T12:07:58;15.57;;;5.20;;
33162;SDS011;29282;45.656;11.302;2023-11-18T12:10:27;14.25;;;5.03;;
33162;SDS011;29282;45.656;11.302;2023-11-18T12:13:09;14.75;;;5.05;;
33162;SDS011;29282;45.656;11.302;2023-11-18T12:15:53;14.75;;;5.20;;
33162;SDS011;29282;45.656;11.302;2023-11-18T12:18:22;12.55;;;4.80;;
33162;SDS011;29282;45.656;11.302;2023-11-18T12:20:49;15.52;;;4.60;;
33162;SDS011;29282;45.656;11.302;2023-11-18T12:23:22;14.50;;;4.90;;
33162;SDS011;29282;45.656;11.302;2023-11-18T12:25:50;13.60;;;4.22;;
33162;SDS011;29282;45.656;11.302;2023-11-18T12:28:32;10.20;;;4.32;;
33162;SDS011;29282;45.656;11.302;2023-11-18T12:31:10;13.43;;;4.57;;
33162;SDS011;29282;45.656;11.302;2023-11-18T12:41:38;13.52;;;4.55;;
33162;SDS011;29282;45.656;11.302;2023-11-18T12:49:44;11.93;;;4.50;;
33162;SDS011;29282;45.656;11.302;2023-11-18T12:52:15;11.55;;;4.30;;
33162;SDS011;29282;45.656;11.302;2023-11-18T12:54:44;12.68;;;5.13;;
33162;SDS011;29282;45.656;11.302;2023-11-18T12:57:15;11.70;;;4.45;;
33162;SDS011;29282;45.656;11.302;2023-11-18T12:59:51;10.05;;;4.15;;
33162;SDS011;29282;45.656;11.302;2023-11-18T13:02:16;13.05;;;4.65;;
33162;SDS011;29282;45.656;11.302;2023-11-18T13:04:48;12.00;;;3.83;;
33162;SDS011;29282;45.656;11.302;2023-11-18T13:07:17;11.23;;;4.22;;
33162;SDS011;29282;45.656;11.302;2023-11-18T13:09:43;10.70;;;4.00;;
33162;SDS011;29282;45.656;11.302;2023-11-18T13:12:11;8.70;;;3.88;;
33162;SDS011;29282;45.656;11.302;2023-11-18T13:14:40;11.70;;;4.22;;
33162;SDS011;29282;45.656;11.302;2023-11-18T13:17:11;11.70;;;4.03;;
33162;SDS011;29282;45.656;11.302;2023-11-18T13:19:39;12.25;;;3.97;;
33162;SDS011;29282;45.656;11.302;2023-11-18T13:22:05;10.38;;;4.32;;
33162;SDS011;29282;45.656;11.302;2023-11-18T13:24:33;9.30;;;3.95;;
33162;SDS011;29282;45.656;11.302;2023-11-18T13:27:00;10.63;;;4.32;;
33162;SDS011;29282;45.656;11.302;2023-11-18T13:29:28;9.70;;;3.95;;
33162;SDS011;29282;45.656;11.302;2023-11-18T13:31:54;10.68;;;3.95;;
33162;SDS011;29282;45.656;11.302;2023-11-18T13:34:22;11.60;;;4.20;;
33162;SDS011;29282;45.656;11.302;2023-11-18T13:36:50;7.28;;;3.70;;
33162;SDS011;29282;45.656;11.302;2023-11-18T13:39:19;9.98;;;3.50;;
33162;SDS011;29282;45.656;11.302;2023-11-18T13:41:49;10.52;;;4.32;;
33162;SDS011;29282;45.656;11.302;2023-11-18T13:46:59;10.98;;;3.85;;
33162;SDS011;29282;45.656;11.302;2023-11-18T13:49:30;13.90;;;4.38;;
33162;SDS011;29282;45.656;11.302;2023-11-18T13:51:55;10.20;;;4.00;;
33162;SDS011;29282;45.656;11.302;2023-11-18T13:54:22;9.43;;;3.90;;
33162;SDS011;29282;45.656;11.302;2023-11-18T13:56:50;9.35;;;3.60;;
33162;SDS011;29282;45.656;11.302;2023-11-18T13:59:23;12.43;;;4.50;;
33162;SDS011;29282;45.656;11.302;2023-11-18T14:01:52;9.25;;;4.28;;
33162;SDS011;29282;45.656;11.302;2023-11-18T14:04:22;9.60;;;4.07;;
33162;SDS011;29282;45.656;11.302;2023-11-18T14:06:51;8.90;;;3.72;;
33162;SDS011;29282;45.656;11.302;2023-11-18T14:09:18;9.18;;;3.70;;
33162;SDS011;29282;45.656;11.302;2023-11-18T14:11:49;11.20;;;4.30;;
33162;SDS011;29282;45.656;11.302;2023-11-18T14:14:14;12.43;;;3.95;;
33162;SDS011;29282;45.656;11.302;2023-11-18T14:16:40;8.38;;;3.60;;
33162;SDS011;29282;45.656;11.302;2023-11-18T14:19:06;9.88;;;3.55;;
33162;SDS011;29282;45.656;11.302;2023-11-18T14:21:32;9.68;;;3.75;;
33162;SDS011;29282;45.656;11.302;2023-11-18T14:23:57;10.13;;;4.00;;
33162;SDS011;29282;45.656;11.302;2023-11-18T14:26:28;6.95;;;3.20;;
33162;SDS011;29282;45.656;11.302;2023-11-18T14:28:54;11.80;;;4.03;;
33162;SDS011;29282;45.656;11.302;2023-11-18T14:31:20;9.38;;;3.85;;
33162;SDS011;29282;45.656;11.302;2023-11-18T14:33:47;7.60;;;3.40;;
33162;SDS011;29282;45.656;11.302;2023-11-18T14:36:16;7.20;;;3.85;;
33162;SDS011;29282;45.656;11.302;2023-11-18T14:38:42;8.65;;;3.78;;
33162;SDS011;29282;45.656;11.302;2023-11-18T14:41:07;7.43;;;3.47;;
33162;SDS011;29282;45.656;11.302;2023-11-18T14:43:33;8.75;;;3.55;;
33162;SDS011;29282;45.656;11.302;2023-11-18T14:45:59;7.55;;;3.35;;
33162;SDS011;29282;45.656;11.302;2023-11-18T14:48:25;7.90;;;3.38;;
33162;SDS011;29282;45.656;11.302;2023-11-18T14:50:53;10.63;;;3.42;;
33162;SDS011;29282;45.656;11.302;2023-11-18T14:53:19;11.45;;;3.40;;
33162;SDS011;29282;45.656;11.302;2023-11-18T14:55:45;10.43;;;3.50;;
33162;SDS011;29282;45.656;11.302;2023-11-18T14:58:11;9.90;;;3.92;;
33162;SDS011;29282;45.656;11.302;2023-11-18T15:00:37;6.85;;;4.07;;
33162;SDS011;29282;45.656;11.302;2023-11-18T15:03:02;5.95;;;3.20;;
33162;SDS011;29282;45.656;11.302;2023-11-18T15:05:31;7.97;;;3.33;;
33162;SDS011;29282;45.656;11.302;2023-11-18T15:07:57;5.63;;;3.15;;
33162;SDS011;29282;45.656;11.302;2023-11-18T15:10:24;6.65;;;3.42;;
33162;SDS011;29282;45.656;11.302;2023-11-18T15:12:55;8.55;;;3.72;;